sensor_id;sensor_type;location;lat;lon;timestamp;P1;durP1;ratioP1;P2;durP2;ratioP2
23728;SDS011;12045;60.214;24.724;2022-11-24T00:01:21;1.50;;;1.20;;
23728;SDS011;12045;60.214;24.724;2022-11-24T00:04:00;2.20;;;1.30;;
23728;SDS011;12045;60.214;24.724;2022-11-24T00:06:30;1.93;;;1.40;;
23728;SDS011;12045;60.214;24.724;2022-11-24T00:09:01;1.53;;;1.43;;
23728;SDS011;12045;60.214;24.724;2022-11-24T00:11:30;1.13;;;1.00;;
23728;SDS011;12045;60.214;24.724;2022-11-24T00:13:59;2.00;;;1.47;;
23728;SDS011;12045;60.214;24.724;2022-11-24T00:16:28;2.17;;;1.43;;
23728;SDS011;12045;60.214;24.724;2022-11-24T00:18:58;1.97;;;1.30;;
23728;SDS011;12045;60.214;24.724;2022-11-24T00:21:28;1.60;;;1.43;;
23728;SDS011;12045;60.214;24.724;2022-11-24T00:23:56;1.13;;;1.03;;
23728;SDS011;12045;60.214;24.724;2022-11-24T00:26:25;1.37;;;1.27;;
23728;SDS011;12045;60.214;24.724;2022-11-24T00:28:58;1.83;;;1.30;;
23728;SDS011;12045;60.214;24.724;2022-11-24T00:31:31;1.90;;;0.87;;
23728;SDS011;12045;60.214;24.724;2022-11-24T00:34:04;1.43;;;1.13;;
23728;SDS011;12045;60.214;24.724;2022-11-24T00:36:34;1.90;;;1.10;;
23728;SDS011;12045;60.214;24.724;2022-11-24T00:39:06;1.30;;;1.10;;
23728;SDS011;12045;60.214;24.724;2022-11-24T00:41:37;2.60;;;1.47;;
23728;SDS011;12045;60.214;24.724;2022-11-24T00:44:04;1.30;;;1.20;;
23728;SDS011;12045;60.214;24.724;2022-11-24T00:46:32;1.43;;;1.03;;
23728;SDS011;12045;60.214;24.724;2022-11-24T00:49:01;1.03;;;1.00;;
23728;SDS011;12045;60.214;24.724;2022-11-24T00:51:29;1.10;;;0.93;;
23728;SDS011;12045;60.214;24.724;2022-11-24T00:53:57;2.13;;;1.00;;
23728;SDS011;12045;60.214;24.724;2022-11-24T00:56:26;1.13;;;1.03;;
23728;SDS011;12045;60.214;24.724;2022-11-24T00:58:56;3.20;;;1.50;;
23728;SDS011;12045;60.214;24.724;2022-11-24T01:01:25;2.13;;;1.60;;
23728;SDS011;12045;60.214;24.724;2022-11-24T01:03:54;1.60;;;1.33;;
23728;SDS011;12045;60.214;24.724;2022-11-24T01:06:23;1.83;;;1.47;;
23728;SDS011;12045;60.214;24.724;2022-11-24T01:08:52;1.30;;;1.20;;
23728;SDS011;12045;60.214;24.724;2022-11-24T01:11:21;1.23;;;1.13;;
23728;SDS011;12045;60.214;24.724;2022-11-24T01:13:53;2.17;;;1.50;;
23728;SDS011;12045;60.214;24.724;2022-11-24T01:16:27;1.70;;;1.50;;
23728;SDS011;12045;60.214;24.724;2022-11-24T01:18:57;1.60;;;1.43;;
23728;SDS011;12045;60.214;24.724;2022-11-24T01:21:24;1.97;;;1.57;;
23728;SDS011;12045;60.214;24.724;2022-11-24T01:23:52;2.00;;;1.43;;
23728;SDS011;12045;60.214;24.724;2022-11-24T01:26:20;1.43;;;0.87;;
23728;SDS011;12045;60.214;24.724;2022-11-24T01:28:54;3.07;;;1.90;;
23728;SDS011;12045;60.214;24.724;2022-11-24T01:31:25;1.93;;;1.60;;
23728;SDS011;12045;60.214;24.724;2022-11-24T01:33:53;1.73;;;1.60;;
23728;SDS011;12045;60.214;24.724;2022-11-24T01:36:21;2.87;;;1.80;;
23728;SDS011;12045;60.214;24.724;2022-11-24T01:38:49;2.07;;;1.70;;
23728;SDS011;12045;60.214;24.724;2022-11-24T01:41:17;1.93;;;1.60;;
23728;SDS011;12045;60.214;24.724;2022-11-24T01:43:49;3.27;;;2.07;;
23728;SDS011;12045;60.214;24.724;2022-11-24T01:48:53;2.60;;;2.00;;
23728;SDS011;12045;60.214;24.724;2022-11-24T01:51:56;2.07;;;1.70;;
23728;SDS011;12045;60.214;24.724;2022-11-24T01:54:30;1.93;;;1.70;;
23728;SDS011;12045;60.214;24.724;2022-11-24T01:57:08;2.57;;;0.83;;
23728;SDS011;12045;60.214;24.724;2022-11-24T01:59:40;3.43;;;2.00;;
23728;SDS011;12045;60.214;24.724;2022-11-24T02:02:10;2.90;;;1.93;;
23728;SDS011;12045;60.214;24.724;2022-11-24T02:04:38;2.63;;;1.93;;
23728;SDS011;12045;60.214;24.724;2022-11-24T02:07:06;2.90;;;2.20;;
23728;SDS011;12045;60.214;24.724;2022-11-24T02:09:37;4.40;;;2.07;;
23728;SDS011;12045;60.214;24.724;2022-11-24T02:12:09;2.80;;;2.10;;
23728;SDS011;12045;60.214;24.724;2022-11-24T02:14:37;2.60;;;1.93;;
23728;SDS011;12045;60.214;24.724;2022-11-24T02:17:06;2.53;;;1.90;;
23728;SDS011;12045;60.214;24.724;2022-11-24T02:19:36;2.97;;;2.20;;
23728;SDS011;12045;60.214;24.724;2022-11-24T02:22:09;2.50;;;2.00;;
23728;SDS011;12045;60.214;24.724;2022-11-24T02:27:18;3.17;;;2.13;;
23728;SDS011;12045;60.214;24.724;2022-11-24T02:29:45;2.93;;;2.07;;
23728;SDS011;12045;60.214;24.724;2022-11-24T02:32:14;3.53;;;2.40;;
23728;SDS011;12045;60.214;24.724;2022-11-24T02:34:42;3.40;;;2.50;;
23728;SDS011;12045;60.214;24.724;2022-11-24T02:37:10;3.27;;;2.43;;
23728;SDS011;12045;60.214;24.724;2022-11-24T02:39:37;2.60;;;2.37;;
23728;SDS011;12045;60.214;24.724;2022-11-24T02:42:07;4.03;;;2.50;;
23728;SDS011;12045;60.214;24.724;2022-11-24T02:44:41;1.80;;;1.47;;
23728;SDS011;12045;60.214;24.724;2022-11-24T02:47:12;3.27;;;2.20;;
23728;SDS011;12045;60.214;24.724;2022-11-24T02:49:40;4.17;;;2.30;;
23728;SDS011;12045;60.214;24.724;2022-11-24T02:52:08;2.63;;;2.00;;
23728;SDS011;12045;60.214;24.724;2022-11-24T02:54:35;3.80;;;2.27;;
23728;SDS011;12045;60.214;24.724;2022-11-24T02:57:03;3.20;;;2.30;;
23728;SDS011;12045;60.214;24.724;2022-11-24T02:59:31;3.67;;;2.40;;
23728;SDS011;12045;60.214;24.724;2022-11-24T03:01:58;3.00;;;2.10;;
23728;SDS011;12045;60.214;24.724;2022-11-24T03:04:26;2.53;;;2.00;;
23728;SDS011;12045;60.214;24.724;2022-11-24T03:06:53;3.53;;;2.40;;
23728;SDS011;12045;60.214;24.724;2022-11-24T03:09:21;4.17;;;2.50;;
23728;SDS011;12045;60.214;24.724;2022-11-24T03:11:48;5.50;;;2.30;;
23728;SDS011;12045;60.214;24.724;2022-11-24T03:14:16;5.40;;;2.30;;
23728;SDS011;12045;60.214;24.724;2022-11-24T03:16:44;4.37;;;2.50;;
23728;SDS011;12045;60.214;24.724;2022-11-24T03:19:11;3.83;;;2.60;;
23728;SDS011;12045;60.214;24.724;2022-11-24T03:21:38;3.37;;;2.43;;
23728;SDS011;12045;60.214;24.724;2022-11-24T03:24:06;2.73;;;2.33;;
23728;SDS011;12045;60.214;24.724;2022-11-24T03:26:34;3.40;;;2.10;;
23728;SDS011;12045;60.214;24.724;2022-11-24T03:29:02;3.10;;;2.10;;
23728;SDS011;12045;60.214;24.724;2022-11-24T03:31:29;3.67;;;2.40;;
23728;SDS011;12045;60.214;24.724;2022-11-24T03:33:57;2.50;;;1.60;;
23728;SDS011;12045;60.214;24.724;2022-11-24T03:36:24;1.43;;;1.10;;
23728;SDS011;12045;60.214;24.724;2022-11-24T03:38:52;2.97;;;2.10;;
23728;SDS011;12045;60.214;24.724;2022-11-24T03:41:20;2.50;;;1.70;;
23728;SDS011;12045;60.214;24.724;2022-11-24T03:43:47;4.43;;;2.30;;
23728;SDS011;12045;60.214;24.724;2022-11-24T03:46:15;3.47;;;2.40;;
23728;SDS011;12045;60.214;24.724;2022-11-24T03:48:43;4.07;;;2.50;;
23728;SDS011;12045;60.214;24.724;2022-11-24T03:51:10;2.70;;;1.90;;
23728;SDS011;12045;60.214;24.724;2022-11-24T03:53:38;4.00;;;2.07;;
23728;SDS011;12045;60.214;24.724;2022-11-24T03:56:05;5.80;;;2.40;;
23728;SDS011;12045;60.214;24.724;2022-11-24T03:58:34;4.03;;;2.40;;
23728;SDS011;12045;60.214;24.724;2022-11-24T04:01:02;3.83;;;2.43;;
23728;SDS011;12045;60.214;24.724;2022-11-24T04:03:29;2.63;;;2.07;;
23728;SDS011;12045;60.214;24.724;2022-11-24T04:05:57;3.23;;;2.33;;
23728;SDS011;12045;60.214;24.724;2022-11-24T04:08:25;3.17;;;2.30;;
23728;SDS011;12045;60.214;24.724;2022-11-24T04:10:52;3.50;;;2.23;;
23728;SDS011;12045;60.214;24.724;2022-11-24T04:13:21;3.40;;;2.30;;
23728;SDS011;12045;60.214;24.724;2022-11-24T04:15:50;3.27;;;2.20;;
23728;SDS011;12045;60.214;24.724;2022-11-24T04:18:18;4.27;;;2.83;;
23728;SDS011;12045;60.214;24.724;2022-11-24T04:20:49;4.17;;;2.67;;
23728;SDS011;12045;60.214;24.724;2022-11-24T04:23:18;4.60;;;2.40;;
23728;SDS011;12045;60.214;24.724;2022-11-24T04:25:45;3.97;;;2.40;;
23728;SDS011;12045;60.214;24.724;2022-11-24T04:28:13;3.80;;;2.03;;
23728;SDS011;12045;60.214;24.724;2022-11-24T04:30:40;4.67;;;2.23;;
23728;SDS011;12045;60.214;24.724;2022-11-24T04:33:11;0.80;;;0.80;;
23728;SDS011;12045;60.214;24.724;2022-11-24T04:35:39;4.07;;;2.90;;
23728;SDS011;12045;60.214;24.724;2022-11-24T04:38:06;9.50;;;2.27;;
23728;SDS011;12045;60.214;24.724;2022-11-24T04:40:34;3.03;;;2.30;;
23728;SDS011;12045;60.214;24.724;2022-11-24T04:43:02;4.20;;;2.53;;
23728;SDS011;12045;60.214;24.724;2022-11-24T04:45:30;5.27;;;2.90;;
23728;SDS011;12045;60.214;24.724;2022-11-24T04:47:57;4.57;;;2.93;;
23728;SDS011;12045;60.214;24.724;2022-11-24T04:50:25;3.67;;;2.10;;
23728;SDS011;12045;60.214;24.724;2022-11-24T04:52:52;5.03;;;3.10;;
23728;SDS011;12045;60.214;24.724;2022-11-24T04:55:20;4.33;;;2.90;;
23728;SDS011;12045;60.214;24.724;2022-11-24T04:57:47;3.07;;;1.93;;
23728;SDS011;12045;60.214;24.724;2022-11-24T05:00:15;4.90;;;2.70;;
23728;SDS011;12045;60.214;24.724;2022-11-24T05:02:43;4.23;;;2.80;;
23728;SDS011;12045;60.214;24.724;2022-11-24T05:05:10;3.97;;;2.77;;
23728;SDS011;12045;60.214;24.724;2022-11-24T05:07:38;4.13;;;2.53;;
23728;SDS011;12045;60.214;24.724;2022-11-24T05:10:06;1.33;;;1.17;;
23728;SDS011;12045;60.214;24.724;2022-11-24T05:12:53;5.00;;;3.10;;
23728;SDS011;12045;60.214;24.724;2022-11-24T05:15:22;4.17;;;3.10;;
23728;SDS011;12045;60.214;24.724;2022-11-24T05:17:53;6.17;;;3.27;;
23728;SDS011;12045;60.214;24.724;2022-11-24T05:20:21;6.50;;;3.30;;
23728;SDS011;12045;60.214;24.724;2022-11-24T05:22:49;5.13;;;2.70;;
23728;SDS011;12045;60.214;24.724;2022-11-24T05:25:17;4.43;;;3.37;;
23728;SDS011;12045;60.214;24.724;2022-11-24T05:27:46;6.17;;;3.10;;
23728;SDS011;12045;60.214;24.724;2022-11-24T05:30:14;3.30;;;1.83;;
23728;SDS011;12045;60.214;24.724;2022-11-24T05:32:41;6.13;;;3.17;;
23728;SDS011;12045;60.214;24.724;2022-11-24T05:35:09;5.20;;;3.20;;
23728;SDS011;12045;60.214;24.724;2022-11-24T05:37:36;5.30;;;3.40;;
23728;SDS011;12045;60.214;24.724;2022-11-24T05:40:04;6.37;;;3.50;;
23728;SDS011;12045;60.214;24.724;2022-11-24T05:42:32;4.77;;;3.23;;
23728;SDS011;12045;60.214;24.724;2022-11-24T05:45:13;4.20;;;2.97;;
23728;SDS011;12045;60.214;24.724;2022-11-24T05:47:43;4.93;;;2.83;;
23728;SDS011;12045;60.214;24.724;2022-11-24T05:50:11;5.67;;;3.50;;
23728;SDS011;12045;60.214;24.724;2022-11-24T05:52:40;5.93;;;3.10;;
23728;SDS011;12045;60.214;24.724;2022-11-24T05:55:08;5.97;;;3.20;;
23728;SDS011;12045;60.214;24.724;2022-11-24T06:01:18;5.27;;;2.47;;
23728;SDS011;12045;60.214;24.724;2022-11-24T06:03:46;5.97;;;3.50;;
23728;SDS011;12045;60.214;24.724;2022-11-24T06:06:13;8.57;;;3.87;;
23728;SDS011;12045;60.214;24.724;2022-11-24T06:12:36;5.67;;;3.33;;
23728;SDS011;12045;60.214;24.724;2022-11-24T06:15:04;4.60;;;3.10;;
23728;SDS011;12045;60.214;24.724;2022-11-24T06:17:34;8.20;;;3.73;;
23728;SDS011;12045;60.214;24.724;2022-11-24T06:20:07;8.30;;;3.23;;
23728;SDS011;12045;60.214;24.724;2022-11-24T06:22:41;9.23;;;3.30;;
23728;SDS011;12045;60.214;24.724;2022-11-24T06:25:10;5.27;;;3.23;;
23728;SDS011;12045;60.214;24.724;2022-11-24T06:27:39;1.80;;;1.30;;
23728;SDS011;12045;60.214;24.724;2022-11-24T06:30:09;5.07;;;3.33;;
23728;SDS011;12045;60.214;24.724;2022-11-24T06:32:38;7.63;;;3.70;;
23728;SDS011;12045;60.214;24.724;2022-11-24T06:35:15;7.67;;;3.43;;
23728;SDS011;12045;60.214;24.724;2022-11-24T06:37:43;1.87;;;1.60;;
23728;SDS011;12045;60.214;24.724;2022-11-24T06:40:12;6.67;;;3.60;;
23728;SDS011;12045;60.214;24.724;2022-11-24T06:42:40;6.83;;;3.90;;
23728;SDS011;12045;60.214;24.724;2022-11-24T06:45:08;5.27;;;3.20;;
23728;SDS011;12045;60.214;24.724;2022-11-24T06:47:36;6.80;;;3.30;;
23728;SDS011;12045;60.214;24.724;2022-11-24T06:50:05;7.10;;;3.90;;
23728;SDS011;12045;60.214;24.724;2022-11-24T06:52:34;6.97;;;3.77;;
23728;SDS011;12045;60.214;24.724;2022-11-24T06:55:02;6.47;;;3.30;;
23728;SDS011;12045;60.214;24.724;2022-11-24T06:57:32;11.43;;;3.77;;
23728;SDS011;12045;60.214;24.724;2022-11-24T07:00:05;5.53;;;3.20;;
23728;SDS011;12045;60.214;24.724;2022-11-24T07:02:37;7.83;;;3.77;;
23728;SDS011;12045;60.214;24.724;2022-11-24T07:05:12;5.63;;;3.60;;
23728;SDS011;12045;60.214;24.724;2022-11-24T07:07:40;7.90;;;3.67;;
23728;SDS011;12045;60.214;24.724;2022-11-24T07:10:08;6.47;;;3.83;;
23728;SDS011;12045;60.214;24.724;2022-11-24T07:12:36;6.13;;;3.57;;
23728;SDS011;12045;60.214;24.724;2022-11-24T07:15:04;7.10;;;3.93;;
23728;SDS011;12045;60.214;24.724;2022-11-24T07:17:36;4.93;;;3.27;;
23728;SDS011;12045;60.214;24.724;2022-11-24T07:20:10;7.53;;;3.50;;
23728;SDS011;12045;60.214;24.724;2022-11-24T07:22:39;6.03;;;3.47;;
23728;SDS011;12045;60.214;24.724;2022-11-24T07:25:08;8.27;;;3.73;;
23728;SDS011;12045;60.214;24.724;2022-11-24T07:27:37;7.50;;;3.80;;
23728;SDS011;12045;60.214;24.724;2022-11-24T07:30:06;8.10;;;4.27;;
23728;SDS011;12045;60.214;24.724;2022-11-24T07:32:41;7.30;;;4.00;;
23728;SDS011;12045;60.214;24.724;2022-11-24T07:35:20;7.23;;;4.20;;
23728;SDS011;12045;60.214;24.724;2022-11-24T07:38:50;5.97;;;3.20;;
23728;SDS011;12045;60.214;24.724;2022-11-24T07:41:19;7.17;;;3.50;;
23728;SDS011;12045;60.214;24.724;2022-11-24T07:43:47;6.10;;;3.43;;
23728;SDS011;12045;60.214;24.724;2022-11-24T07:46:21;8.27;;;4.17;;
23728;SDS011;12045;60.214;24.724;2022-11-24T07:49:00;7.27;;;3.87;;
23728;SDS011;12045;60.214;24.724;2022-11-24T07:51:52;7.50;;;3.93;;
23728;SDS011;12045;60.214;24.724;2022-11-24T07:54:35;6.60;;;3.80;;
23728;SDS011;12045;60.214;24.724;2022-11-24T07:57:03;8.63;;;4.27;;
23728;SDS011;12045;60.214;24.724;2022-11-24T07:59:33;6.73;;;3.73;;
23728;SDS011;12045;60.214;24.724;2022-11-24T08:02:02;7.77;;;3.97;;
23728;SDS011;12045;60.214;24.724;2022-11-24T08:04:29;8.83;;;4.20;;
23728;SDS011;12045;60.214;24.724;2022-11-24T08:07:00;6.90;;;3.70;;
23728;SDS011;12045;60.214;24.724;2022-11-24T08:09:30;3.80;;;2.27;;
23728;SDS011;12045;60.214;24.724;2022-11-24T08:12:18;6.23;;;3.60;;
23728;SDS011;12045;60.214;24.724;2022-11-24T08:14:49;6.47;;;4.00;;
23728;SDS011;12045;60.214;24.724;2022-11-24T08:17:18;7.70;;;4.47;;
23728;SDS011;12045;60.214;24.724;2022-11-24T08:19:50;5.57;;;2.90;;
23728;SDS011;12045;60.214;24.724;2022-11-24T08:22:18;5.93;;;3.43;;
23728;SDS011;12045;60.214;24.724;2022-11-24T08:24:47;5.57;;;3.57;;
23728;SDS011;12045;60.214;24.724;2022-11-24T08:27:16;5.93;;;3.43;;
23728;SDS011;12045;60.214;24.724;2022-11-24T08:29:51;5.07;;;3.07;;
23728;SDS011;12045;60.214;24.724;2022-11-24T08:32:19;5.87;;;3.23;;
23728;SDS011;12045;60.214;24.724;2022-11-24T08:34:51;2.20;;;1.53;;
23728;SDS011;12045;60.214;24.724;2022-11-24T08:37:28;8.50;;;2.90;;
23728;SDS011;12045;60.214;24.724;2022-11-24T08:43:53;5.37;;;2.93;;
23728;SDS011;12045;60.214;24.724;2022-11-24T08:47:00;5.70;;;3.03;;
23728;SDS011;12045;60.214;24.724;2022-11-24T08:49:30;6.70;;;3.03;;
23728;SDS011;12045;60.214;24.724;2022-11-24T08:52:01;4.20;;;2.60;;
23728;SDS011;12045;60.214;24.724;2022-11-24T08:54:28;4.90;;;2.77;;
23728;SDS011;12045;60.214;24.724;2022-11-24T08:56:57;8.03;;;3.37;;
23728;SDS011;12045;60.214;24.724;2022-11-24T08:59:25;6.93;;;3.43;;
23728;SDS011;12045;60.214;24.724;2022-11-24T09:01:55;4.63;;;3.07;;
23728;SDS011;12045;60.214;24.724;2022-11-24T09:04:23;5.27;;;2.97;;
23728;SDS011;12045;60.214;24.724;2022-11-24T09:06:56;5.87;;;3.30;;
23728;SDS011;12045;60.214;24.724;2022-11-24T09:09:30;5.37;;;2.90;;
23728;SDS011;12045;60.214;24.724;2022-11-24T09:12:02;5.70;;;3.00;;
23728;SDS011;12045;60.214;24.724;2022-11-24T09:14:39;4.63;;;2.97;;
23728;SDS011;12045;60.214;24.724;2022-11-24T09:17:08;5.03;;;2.70;;
23728;SDS011;12045;60.214;24.724;2022-11-24T09:19:38;5.57;;;3.17;;
23728;SDS011;12045;60.214;24.724;2022-11-24T09:22:05;5.73;;;3.00;;
23728;SDS011;12045;60.214;24.724;2022-11-24T09:24:36;4.60;;;2.43;;
23728;SDS011;12045;60.214;24.724;2022-11-24T09:27:06;4.73;;;2.60;;
23728;SDS011;12045;60.214;24.724;2022-11-24T09:29:38;5.53;;;2.97;;
23728;SDS011;12045;60.214;24.724;2022-11-24T09:32:09;6.40;;;3.40;;
23728;SDS011;12045;60.214;24.724;2022-11-24T09:34:40;6.30;;;3.10;;
23728;SDS011;12045;60.214;24.724;2022-11-24T09:37:10;4.77;;;3.07;;
23728;SDS011;12045;60.214;24.724;2022-11-24T09:39:40;4.60;;;2.93;;
23728;SDS011;12045;60.214;24.724;2022-11-24T09:48:32;5.60;;;3.03;;
23728;SDS011;12045;60.214;24.724;2022-11-24T09:51:38;5.60;;;3.30;;
23728;SDS011;12045;60.214;24.724;2022-11-24T09:54:15;3.80;;;2.40;;
23728;SDS011;12045;60.214;24.724;2022-11-24T09:56:47;4.73;;;3.10;;
23728;SDS011;12045;60.214;24.724;2022-11-24T09:59:21;6.10;;;2.93;;
23728;SDS011;12045;60.214;24.724;2022-11-24T10:01:50;5.03;;;2.90;;
23728;SDS011;12045;60.214;24.724;2022-11-24T10:07:25;4.93;;;3.17;;
23728;SDS011;12045;60.214;24.724;2022-11-24T10:10:16;4.80;;;3.23;;
23728;SDS011;12045;60.214;24.724;2022-11-24T10:21:53;8.20;;;3.27;;
23728;SDS011;12045;60.214;24.724;2022-11-24T10:27:18;6.93;;;3.13;;
23728;SDS011;12045;60.214;24.724;2022-11-24T10:29:53;6.07;;;3.30;;
23728;SDS011;12045;60.214;24.724;2022-11-24T10:34:51;6.87;;;3.43;;
23728;SDS011;12045;60.214;24.724;2022-11-24T10:43:26;8.23;;;3.63;;
23728;SDS011;12045;60.214;24.724;2022-11-24T10:46:10;6.63;;;3.60;;
23728;SDS011;12045;60.214;24.724;2022-11-24T10:48:45;6.10;;;3.43;;
23728;SDS011;12045;60.214;24.724;2022-11-24T10:51:49;7.07;;;3.77;;
23728;SDS011;12045;60.214;24.724;2022-11-24T10:54:32;6.30;;;3.80;;
23728;SDS011;12045;60.214;24.724;2022-11-24T10:57:04;7.17;;;3.90;;
23728;SDS011;12045;60.214;24.724;2022-11-24T10:59:34;6.90;;;4.00;;
23728;SDS011;12045;60.214;24.724;2022-11-24T11:02:28;7.47;;;3.80;;
23728;SDS011;12045;60.214;24.724;2022-11-24T11:05:26;6.73;;;3.90;;
23728;SDS011;12045;60.214;24.724;2022-11-24T11:08:30;7.23;;;4.00;;
23728;SDS011;12045;60.214;24.724;2022-11-24T11:11:18;4.80;;;2.97;;
23728;SDS011;12045;60.214;24.724;2022-11-24T11:14:29;8.30;;;3.70;;
23728;SDS011;12045;60.214;24.724;2022-11-24T11:16:58;6.93;;;3.90;;
23728;SDS011;12045;60.214;24.724;2022-11-24T11:22:22;7.70;;;3.90;;
23728;SDS011;12045;60.214;24.724;2022-11-24T11:25:03;7.27;;;4.13;;
23728;SDS011;12045;60.214;24.724;2022-11-24T11:27:40;6.93;;;2.80;;
23728;SDS011;12045;60.214;24.724;2022-11-24T11:33:03;4.70;;;3.07;;
23728;SDS011;12045;60.214;24.724;2022-11-24T11:36:14;6.07;;;3.40;;
23728;SDS011;12045;60.214;24.724;2022-11-24T11:38:45;7.17;;;4.37;;
23728;SDS011;12045;60.214;24.724;2022-11-24T11:41:21;9.37;;;4.07;;
23728;SDS011;12045;60.214;24.724;2022-11-24T11:44:14;5.73;;;2.83;;
23728;SDS011;12045;60.214;24.724;2022-11-24T11:46:43;6.83;;;4.00;;
23728;SDS011;12045;60.214;24.724;2022-11-24T11:49:15;9.03;;;4.40;;
23728;SDS011;12045;60.214;24.724;2022-11-24T11:51:57;8.17;;;4.10;;
23728;SDS011;12045;60.214;24.724;2022-11-24T11:58:00;10.10;;;4.47;;
23728;SDS011;12045;60.214;24.724;2022-11-24T12:00:42;6.73;;;3.90;;
23728;SDS011;12045;60.214;24.724;2022-11-24T12:06:47;9.20;;;4.13;;
23728;SDS011;12045;60.214;24.724;2022-11-24T12:24:13;7.17;;;3.90;;
23728;SDS011;12045;60.214;24.724;2022-11-24T12:26:57;7.43;;;3.97;;
23728;SDS011;12045;60.214;24.724;2022-11-24T12:32:47;9.07;;;4.23;;
23728;SDS011;12045;60.214;24.724;2022-11-24T12:35:41;7.57;;;4.40;;
23728;SDS011;12045;60.214;24.724;2022-11-24T12:43:54;8.37;;;4.27;;
23728;SDS011;12045;60.214;24.724;2022-11-24T12:46:37;8.10;;;4.17;;
23728;SDS011;12045;60.214;24.724;2022-11-24T12:52:09;9.03;;;3.90;;
23728;SDS011;12045;60.214;24.724;2022-11-24T12:54:53;10.20;;;4.70;;
23728;SDS011;12045;60.214;24.724;2022-11-24T13:02:39;9.20;;;4.07;;
23728;SDS011;12045;60.214;24.724;2022-11-24T13:07:57;9.57;;;5.30;;
23728;SDS011;12045;60.214;24.724;2022-11-24T13:10:28;8.60;;;4.73;;
23728;SDS011;12045;60.214;24.724;2022-11-24T13:13:20;7.93;;;4.57;;
23728;SDS011;12045;60.214;24.724;2022-11-24T13:18:46;10.33;;;4.67;;
23728;SDS011;12045;60.214;24.724;2022-11-24T13:24:36;10.50;;;5.20;;
23728;SDS011;12045;60.214;24.724;2022-11-24T13:29:45;9.10;;;5.20;;
23728;SDS011;12045;60.214;24.724;2022-11-24T13:43:35;9.07;;;4.60;;
23728;SDS011;12045;60.214;24.724;2022-11-24T13:56:06;8.70;;;4.43;;
23728;SDS011;12045;60.214;24.724;2022-11-24T14:06:47;11.57;;;5.60;;
23728;SDS011;12045;60.214;24.724;2022-11-24T14:12:06;10.33;;;5.47;;
23728;SDS011;12045;60.214;24.724;2022-11-24T14:14:44;9.10;;;4.13;;
23728;SDS011;12045;60.214;24.724;2022-11-24T14:19:55;9.73;;;5.17;;
23728;SDS011;12045;60.214;24.724;2022-11-24T14:22:30;10.70;;;5.50;;
23728;SDS011;12045;60.214;24.724;2022-11-24T14:25:15;11.83;;;5.53;;
23728;SDS011;12045;60.214;24.724;2022-11-24T14:27:51;10.47;;;5.37;;
23728;SDS011;12045;60.214;24.724;2022-11-24T14:30:19;10.10;;;5.63;;
23728;SDS011;12045;60.214;24.724;2022-11-24T14:35:23;11.13;;;5.83;;
23728;SDS011;12045;60.214;24.724;2022-11-24T14:37:53;10.37;;;5.50;;
23728;SDS011;12045;60.214;24.724;2022-11-24T14:40:54;11.40;;;5.47;;
23728;SDS011;12045;60.214;24.724;2022-11-24T14:43:29;5.87;;;3.33;;
23728;SDS011;12045;60.214;24.724;2022-11-24T14:45:58;10.97;;;5.17;;
23728;SDS011;12045;60.214;24.724;2022-11-24T14:48:35;9.90;;;5.00;;
23728;SDS011;12045;60.214;24.724;2022-11-24T14:53:39;11.37;;;5.13;;
23728;SDS011;12045;60.214;24.724;2022-11-24T14:56:19;10.10;;;5.03;;
23728;SDS011;12045;60.214;24.724;2022-11-24T14:58:51;9.80;;;5.37;;
23728;SDS011;12045;60.214;24.724;2022-11-24T15:04:20;10.77;;;5.37;;
23728;SDS011;12045;60.214;24.724;2022-11-24T15:09:52;9.87;;;4.97;;
23728;SDS011;12045;60.214;24.724;2022-11-24T15:12:27;9.67;;;4.90;;
23728;SDS011;12045;60.214;24.724;2022-11-24T15:15:02;8.83;;;5.20;;
23728;SDS011;12045;60.214;24.724;2022-11-24T15:17:31;7.90;;;3.37;;
23728;SDS011;12045;60.214;24.724;2022-11-24T15:20:00;9.13;;;4.90;;
23728;SDS011;12045;60.214;24.724;2022-11-24T15:22:36;10.87;;;5.33;;
23728;SDS011;12045;60.214;24.724;2022-11-24T15:27:52;10.37;;;5.47;;
23728;SDS011;12045;60.214;24.724;2022-11-24T15:30:20;57.00;;;39.57;;
23728;SDS011;12045;60.214;24.724;2022-11-24T15:32:49;22.10;;;13.43;;
23728;SDS011;12045;60.214;24.724;2022-11-24T15:35:20;10.53;;;6.07;;
23728;SDS011;12045;60.214;24.724;2022-11-24T15:37:48;21.77;;;15.60;;
23728;SDS011;12045;60.214;24.724;2022-11-24T15:40:16;12.33;;;6.87;;
23728;SDS011;12045;60.214;24.724;2022-11-24T15:42:45;11.63;;;6.37;;
23728;SDS011;12045;60.214;24.724;2022-11-24T15:45:32;12.37;;;5.67;;
23728;SDS011;12045;60.214;24.724;2022-11-24T15:48:00;10.07;;;5.83;;
23728;SDS011;12045;60.214;24.724;2022-11-24T15:50:27;12.80;;;8.30;;
23728;SDS011;12045;60.214;24.724;2022-11-24T15:53:00;10.90;;;6.57;;
23728;SDS011;12045;60.214;24.724;2022-11-24T15:55:29;15.67;;;6.70;;
23728;SDS011;12045;60.214;24.724;2022-11-24T15:57:56;9.63;;;5.77;;
23728;SDS011;12045;60.214;24.724;2022-11-24T16:00:27;14.20;;;6.37;;
23728;SDS011;12045;60.214;24.724;2022-11-24T16:02:58;13.63;;;5.97;;
23728;SDS011;12045;60.214;24.724;2022-11-24T16:05:46;11.07;;;7.03;;
23728;SDS011;12045;60.214;24.724;2022-11-24T16:08:15;10.07;;;5.67;;
23728;SDS011;12045;60.214;24.724;2022-11-24T16:10:43;13.70;;;5.80;;
23728;SDS011;12045;60.214;24.724;2022-11-24T16:13:10;9.13;;;6.07;;
23728;SDS011;12045;60.214;24.724;2022-11-24T16:15:38;12.47;;;6.40;;
23728;SDS011;12045;60.214;24.724;2022-11-24T16:18:06;11.03;;;6.10;;
23728;SDS011;12045;60.214;24.724;2022-11-24T16:20:33;11.07;;;5.97;;
23728;SDS011;12045;60.214;24.724;2022-11-24T16:23:02;10.53;;;5.80;;
23728;SDS011;12045;60.214;24.724;2022-11-24T16:25:31;14.03;;;8.60;;
23728;SDS011;12045;60.214;24.724;2022-11-24T16:27:59;11.70;;;5.97;;
23728;SDS011;12045;60.214;24.724;2022-11-24T16:30:26;13.17;;;6.93;;
23728;SDS011;12045;60.214;24.724;2022-11-24T16:32:54;11.33;;;5.57;;
23728;SDS011;12045;60.214;24.724;2022-11-24T16:35:21;11.63;;;6.00;;
23728;SDS011;12045;60.214;24.724;2022-11-24T16:37:48;9.83;;;4.87;;
23728;SDS011;12045;60.214;24.724;2022-11-24T16:40:17;11.30;;;6.13;;
23728;SDS011;12045;60.214;24.724;2022-11-24T16:42:45;12.57;;;6.70;;
23728;SDS011;12045;60.214;24.724;2022-11-24T16:45:12;10.40;;;6.07;;
23728;SDS011;12045;60.214;24.724;2022-11-24T16:47:40;9.53;;;5.83;;
23728;SDS011;12045;60.214;24.724;2022-11-24T16:50:09;10.47;;;5.23;;
23728;SDS011;12045;60.214;24.724;2022-11-24T16:52:38;13.03;;;7.23;;
23728;SDS011;12045;60.214;24.724;2022-11-24T16:55:05;9.77;;;5.57;;
23728;SDS011;12045;60.214;24.724;2022-11-24T16:57:35;11.43;;;6.10;;
23728;SDS011;12045;60.214;24.724;2022-11-24T17:00:04;10.30;;;6.47;;
23728;SDS011;12045;60.214;24.724;2022-11-24T17:02:33;10.80;;;6.63;;
23728;SDS011;12045;60.214;24.724;2022-11-24T17:05:01;13.73;;;6.63;;
23728;SDS011;12045;60.214;24.724;2022-11-24T17:07:28;11.80;;;7.13;;
23728;SDS011;12045;60.214;24.724;2022-11-24T17:09:56;17.10;;;10.43;;
23728;SDS011;12045;60.214;24.724;2022-11-24T17:12:26;10.27;;;6.37;;
23728;SDS011;12045;60.214;24.724;2022-11-24T17:14:56;14.07;;;9.40;;
23728;SDS011;12045;60.214;24.724;2022-11-24T17:17:44;12.40;;;6.40;;
23728;SDS011;12045;60.214;24.724;2022-11-24T17:20:32;8.90;;;5.57;;
23728;SDS011;12045;60.214;24.724;2022-11-24T17:23:02;10.20;;;6.23;;
23728;SDS011;12045;60.214;24.724;2022-11-24T17:25:30;9.43;;;6.13;;
23728;SDS011;12045;60.214;24.724;2022-11-24T17:27:58;12.47;;;7.13;;
23728;SDS011;12045;60.214;24.724;2022-11-24T17:30:26;16.67;;;6.63;;